Reserve, Montana
Current Conditions -  °F | °C
As of 7:52 PM on Thursday 27 Nov 2014 (Local Time) from KISN Reporting Station
Clear Clear  
Wind Chill:   Ceiling: Unl
Heat Index: 14°   Visibility: 10mi
Dew Point: 10°   Wind: 7mph
Humidity: 84%   Direction: 80°E
Pressure: 29.83"   Gusts: NA
Location:  48.61°N, 104.46°W
Report Text: KISN 280252Z AUTO 08006KT 10SM CLR M10/M12 A2983 RMK AO2 SLP143 T11001122 58004
Loading
Personal Weather Stations






























Interactive Weather Map New forecast layout! Learn more

10-Day Weather Forecast

Advertisements
Track Severe Weather on mobile